Time;durP1;ratioP1;P1;durP2;ratioP2;P2;SDS_P1;SDS_P2;PMS_P1;PMS_P2;Temp;Humidity;BMP_temperature;BMP_pressure;BME280_temperature;BME280_humidity;BME280_pressure;Samples;Min_cycle;Max_cycle;Signal;HPM_P1;HPM_P2
2021/07/16 00:00:17;;;;;;;29.98;6.55;;;;;;;20.92;62.04;100499.28;1661605;85;21177;-69
2021/07/16 00:02:52;;;;;;;23.20;6.62;;;;;;;20.89;61.91;100497.54;1657809;85;21734;-68
2021/07/16 00:05:25;;;;;;;25.48;5.97;;;;;;;20.86;61.84;100505.41;1658880;84;21328;-69
2021/07/16 00:07:58;;;;;;;25.62;5.03;;;;;;;20.80;61.73;100500.34;1666775;84;21304;-69
2021/07/16 00:10:32;;;;;;;27.07;5.05;;;;;;;20.77;61.67;100504.75;1668956;85;21258;-68
2021/07/16 00:13:06;;;;;;;22.05;5.75;;;;;;;20.72;61.79;100499.19;1664701;85;21332;-69
2021/07/16 00:15:40;;;;;;;22.13;5.53;;;;;;;20.69;62.05;100498.75;1651525;85;21176;-68
2021/07/16 00:18:13;;;;;;;27.50;5.55;;;;;;;20.65;62.32;100488.20;1662025;85;21728;-68
2021/07/16 00:20:47;;;;;;;27.22;6.00;;;;;;;20.60;62.43;100493.27;1669727;85;21368;-68
2021/07/16 00:23:20;;;;;;;22.55;5.67;;;;;;;20.52;62.48;100494.24;1654530;85;21307;-69
2021/07/16 00:25:53;;;;;;;27.17;6.30;;;;;;;20.48;62.72;100493.50;1666198;85;21208;-68
2021/07/16 00:28:26;;;;;;;24.40;5.53;;;;;;;20.45;62.95;100489.39;1672193;85;21383;-68
2021/07/16 00:31:00;;;;;;;22.07;5.40;;;;;;;20.43;63.14;100487.94;1660349;85;21344;-68
2021/07/16 00:33:33;;;;;;;24.72;5.08;;;;;;;20.44;63.31;100485.60;1651292;85;21300;-68
2021/07/16 00:36:07;;;;;;;21.37;5.12;;;;;;;20.40;63.33;100477.67;1670815;85;21144;-68
2021/07/16 00:38:41;;;;;;;29.23;5.50;;;;;;;20.40;63.48;100473.69;1660159;85;21331;-69
2021/07/16 00:41:13;;;;;;;18.62;4.95;;;;;;;20.40;63.59;100473.69;1653546;85;21364;-68
2021/07/16 00:43:47;;;;;;;24.82;5.62;;;;;;;20.37;63.74;100472.77;1656859;85;21185;-68
2021/07/16 00:46:20;;;;;;;22.98;4.90;;;;;;;20.34;63.95;100471.32;1671668;85;21200;-69
2021/07/16 00:48:54;;;;;;;17.77;4.42;;;;;;;20.31;64.04;100464.22;1669931;85;21204;-69
2021/07/16 00:51:27;;;;;;;27.05;4.42;;;;;;;20.27;64.26;100473.11;1664950;85;21285;-68
2021/07/16 00:54:00;;;;;;;20.12;4.30;;;;;;;20.23;64.42;100464.39;1673558;85;21300;-69
2021/07/16 00:56:33;;;;;;;19.23;4.53;;;;;;;20.20;64.28;100461.58;1660177;85;21194;-68
2021/07/16 00:59:07;;;;;;;16.90;4.10;;;;;;;20.15;64.04;100463.48;1658428;85;21333;-68
2021/07/16 01:01:40;;;;;;;13.98;4.00;;;;;;;20.09;63.91;100456.27;1670883;85;21355;-69
2021/07/16 01:04:17;;;;;;;13.03;3.95;;;;;;;20.05;63.64;100461.66;1673229;85;21202;-69
2021/07/16 01:06:50;;;;;;;16.93;4.40;;;;;;;19.99;63.58;100457.63;1668373;85;21746;-68
2021/07/16 01:09:23;;;;;;;24.30;4.30;;;;;;;19.93;63.61;100463.19;1657071;85;21307;-68
2021/07/16 01:11:56;;;;;;;13.68;3.95;;;;;;;19.89;63.68;100461.11;1672844;85;21186;-70
2021/07/16 01:14:31;;;;;;;24.10;4.75;;;;;;;19.85;63.73;100464.64;1625395;85;21300;-70
2021/07/16 01:17:05;;;;;;;19.73;3.95;;;;;;;19.81;63.79;100462.06;1657753;85;21180;-70
2021/07/16 01:20:10;;;;;;;20.85;4.05;;;;;;;19.78;63.90;100458.45;1645508;86;21298;-70
2021/07/16 01:22:44;;;;;;;15.55;4.05;;;;;;;19.77;63.92;100452.00;1667216;85;21771;-70
2021/07/16 01:25:20;;;;;;;13.98;4.03;;;;;;;19.78;64.09;100460.27;1664471;85;21292;-70
2021/07/16 01:27:56;;;;;;;25.12;4.25;;;;;;;19.77;64.02;100460.80;1661705;85;21366;-70
2021/07/16 01:30:32;;;;;;;14.68;3.08;;;;;;;19.76;63.96;100460.47;1649517;85;21193;-70
2021/07/16 01:33:06;;;;;;;17.87;3.50;;;;;;;19.77;64.05;100459.97;1666067;85;21281;-70
2021/07/16 01:35:39;;;;;;;21.60;3.50;;;;;;;19.76;63.95;100455.66;1667552;85;21760;-72
2021/07/16 01:38:12;;;;;;;13.40;3.87;;;;;;;19.77;63.70;100458.65;1669838;86;21240;-71
2021/07/16 01:40:46;;;;;;;15.43;3.80;;;;;;;19.78;63.95;100462.93;1673194;85;21304;-70
2021/07/16 01:43:19;;;;;;;19.70;3.92;;;;;;;19.80;64.04;100475.55;1654016;85;21197;-70
2021/07/16 01:45:53;;;;;;;18.62;3.52;;;;;;;19.81;63.95;100473.19;1649360;85;21236;-70
2021/07/16 01:48:27;;;;;;;20.97;4.03;;;;;;;19.81;64.16;100479.33;1659051;86;21787;-70
2021/07/16 01:51:00;;;;;;;17.27;4.05;;;;;;;19.83;64.46;100479.12;1658678;85;21315;-70
2021/07/16 01:53:34;;;;;;;20.40;4.20;;;;;;;19.83;64.54;100472.48;1660210;85;21339;-70
2021/07/16 01:56:07;;;;;;;16.82;4.60;;;;;;;19.81;64.54;100481.98;1655902;85;21315;-70
2021/07/16 01:58:40;;;;;;;16.02;4.35;;;;;;;19.84;64.73;100480.78;1665011;85;21335;-70
2021/07/16 02:01:14;;;;;;;25.65;4.80;;;;;;;19.89;64.95;100478.38;1661662;85;21292;-70
2021/07/16 02:03:48;;;;;;;14.18;4.92;;;;;;;19.92;64.98;100476.64;1669902;85;21373;-69
2021/07/16 02:06:22;;;;;;;23.85;4.50;;;;;;;19.94;65.02;100474.12;1664715;85;21343;-70
2021/07/16 02:08:55;;;;;;;22.48;4.65;;;;;;;19.96;65.02;100481.92;1657442;85;21311;-70
2021/07/16 02:11:29;;;;;;;20.08;5.30;;;;;;;19.98;65.07;100481.22;1669314;84;21292;-69
2021/07/16 02:14:03;;;;;;;22.95;5.70;;;;;;;19.99;65.16;100488.98;1644986;85;21188;-71
2021/07/16 02:16:36;;;;;;;14.85;4.35;;;;;;;20.00;65.19;100481.34;1656134;85;21328;-71
2021/07/16 02:19:10;;;;;;;24.43;4.40;;;;;;;20.02;65.04;100475.82;1656280;85;21215;-69
2021/07/16 02:21:44;;;;;;;23.15;5.60;;;;;;;20.04;64.92;100469.80;1659077;84;21363;-68
2021/07/16 02:24:17;;;;;;;21.37;4.40;;;;;;;20.04;65.06;100479.94;1667250;85;21206;-69
2021/07/16 02:26:52;;;;;;;18.70;4.10;;;;;;;20.04;65.11;100489.73;1661324;85;21296;-69
2021/07/16 02:29:25;;;;;;;26.48;5.35;;;;;;;20.07;65.12;100515.94;1669605;85;21346;-71
2021/07/16 02:31:58;;;;;;;15.83;4.40;;;;;;;20.09;65.09;100517.39;1649287;85;21326;-68
2021/07/16 02:34:32;;;;;;;16.65;4.42;;;;;;;20.11;64.79;100494.60;1654392;85;21215;-68
2021/07/16 02:37:05;;;;;;;27.40;4.93;;;;;;;20.06;64.47;100503.16;1651873;85;21303;-68
2021/07/16 02:39:38;;;;;;;15.85;4.30;;;;;;;20.04;64.26;100505.19;1649993;85;21842;-69
2021/07/16 02:42:12;;;;;;;17.55;3.98;;;;;;;20.05;64.05;100503.36;1646891;85;21327;-69
2021/07/16 02:44:45;;;;;;;14.53;3.92;;;;;;;20.06;63.94;100505.02;1664044;85;21343;-69
2021/07/16 02:47:18;;;;;;;32.28;4.17;;;;;;;20.09;63.86;100509.92;1648135;85;21184;-68
2021/07/16 02:49:52;;;;;;;15.15;4.30;;;;;;;20.15;63.54;100508.67;1653588;85;21180;-69
2021/07/16 02:52:26;;;;;;;14.58;3.42;;;;;;;20.26;63.21;100510.50;1660849;85;21188;-69
2021/07/16 02:54:59;;;;;;;17.57;4.10;;;;;;;20.41;62.73;100502.77;1656228;85;21237;-68
2021/07/16 02:57:33;;;;;;;14.63;3.55;;;;;;;20.60;62.33;100515.88;1665959;85;21209;-68
2021/07/16 03:00:12;;;;;;;15.00;3.90;;;;;;;20.81;62.13;100515.81;1654545;85;21291;-68
2021/07/16 03:02:48;;;;;;;16.60;3.52;;;;;;;21.10;61.73;100520.92;1666202;86;21295;-68
2021/07/16 03:05:24;;;;;;;14.05;4.08;;;;;;;21.38;60.99;100522.16;1672640;86;21181;-69
2021/07/16 03:07:58;;;;;;;21.27;4.08;;;;;;;21.63;60.29;100518.45;1649136;85;21220;-70
2021/07/16 03:10:33;;;;;;;;;;;;;;;21.86;59.62;100523.77;1674751;84;21870;-70
2021/07/16 03:13:09;;;;;;;14.85;3.95;;;;;;;22.14;58.94;100545.73;1663623;84;20262;-70
2021/07/16 03:15:43;;;;;;;14.60;3.75;;;;;;;22.41;58.50;100530.56;1674774;84;21213;-70
2021/07/16 03:18:20;;;;;;;11.45;3.65;;;;;;;22.61;58.11;100547.42;1657492;85;21172;-69
2021/07/16 03:20:53;;;;;;;19.10;4.08;;;;;;;22.75;57.72;100561.57;1653111;85;21288;-69
2021/07/16 03:23:26;;;;;;;16.17;4.53;;;;;;;22.83;57.50;100550.69;1651246;85;21335;-70
2021/07/16 03:26:00;;;;;;;15.18;4.17;;;;;;;22.90;57.29;100558.16;1673077;84;21205;-69
2021/07/16 03:28:33;;;;;;;21.37;5.97;;;;;;;22.92;57.35;100532.08;1667123;85;21845;-71
2021/07/16 03:31:07;;;;;;;26.07;6.75;;;;;;;22.95;57.11;100552.20;1654797;85;21168;-70
2021/07/16 03:33:40;;;;;;;29.45;9.10;;;;;;;22.97;57.05;100538.95;1653457;85;21292;-71
2021/07/16 03:36:13;;;;;;;26.73;9.45;;;;;;;22.98;56.84;100539.23;1665321;85;21307;-71
2021/07/16 03:38:47;;;;;;;29.67;9.93;;;;;;;23.02;56.88;100542.32;1674687;86;21328;-72
2021/07/16 03:41:21;;;;;;;32.10;9.88;;;;;;;23.08;56.90;100536.13;1668281;85;21291;-71
2021/07/16 03:43:54;;;;;;;37.03;10.45;;;;;;;23.16;56.89;100541.24;1671094;86;21256;-70
2021/07/16 03:46:27;;;;;;;26.75;8.95;;;;;;;23.25;56.83;100533.30;1667131;85;21851;-71
2021/07/16 03:49:01;;;;;;;26.77;8.40;;;;;;;23.31;56.73;100537.27;1667843;85;21326;-70
2021/07/16 03:51:34;;;;;;;36.58;9.85;;;;;;;23.38;56.73;100535.96;1650714;85;21734;-68
2021/07/16 03:54:08;;;;;;;30.05;9.65;;;;;;;23.42;56.82;100527.81;1663683;84;21209;-69
2021/07/16 03:56:41;;;;;;;28.20;9.48;;;;;;;23.43;56.72;100532.94;1662366;85;21343;-69
2021/07/16 03:59:14;;;;;;;24.67;8.45;;;;;;;23.47;56.95;100530.67;1664752;86;21347;-67
2021/07/16 04:01:49;;;;;;;25.25;8.10;;;;;;;23.52;56.95;100532.70;1654322;84;21299;-68
2021/07/16 04:04:22;;;;;;;31.68;7.28;;;;;;;23.62;57.04;100521.84;1654628;85;21247;-68
2021/07/16 04:06:57;;;;;;;24.57;7.22;;;;;;;23.75;56.88;100525.78;1660039;85;21149;-68
2021/07/16 04:09:32;;;;;;;26.80;5.90;;;;;;;23.87;56.61;100511.20;1654689;85;21188;-69
2021/07/16 04:12:14;;;;;;;14.63;5.55;;;;;;;23.96;56.56;100511.23;1661335;85;21309;-67
2021/07/16 04:14:50;;;;;;;16.15;5.22;;;;;;;24.03;56.57;100510.67;1658460;85;21213;-70
2021/07/16 04:17:27;;;;;;;14.70;4.40;;;;;;;24.12;56.70;100512.09;1658276;85;21346;-70
2021/07/16 04:20:01;;;;;;;14.13;4.03;;;;;;;24.16;56.74;100501.25;1667308;85;21178;-68
2021/07/16 04:22:34;;;;;;;14.98;4.50;;;;;;;24.22;56.88;100495.02;1659212;85;21244;-68
2021/07/16 04:25:13;;;;;;;13.98;3.98;;;;;;;24.28;56.92;100490.66;1658602;84;21303;-69
2021/07/16 04:27:44;;;;;;;15.05;3.90;;;;;;;24.32;56.90;100491.33;1661657;85;21280;-69
2021/07/16 04:30:19;;;;;;;21.55;4.22;;;;;;;24.37;57.09;100495.51;1653245;85;21184;-67
2021/07/16 04:32:57;;;;;;;19.50;4.80;;;;;;;24.41;57.15;100497.23;1650994;85;21871;-69
2021/07/16 04:35:30;;;;;;;15.63;3.77;;;;;;;24.46;57.12;100490.68;1653803;85;21809;-69
2021/07/16 04:38:03;;;;;;;;;;;;;;;24.53;57.02;100485.56;1653778;84;21378;-68
2021/07/16 04:40:35;;;;;;;8.75;4.53;;;;;;;24.64;56.93;100492.89;1652205;85;20238;-67
2021/07/16 04:43:10;;;;;;;14.18;4.03;;;;;;;24.98;57.13;100494.72;1650925;84;21223;-68
2021/07/16 04:45:45;;;;;;;13.50;4.12;;;;;;;24.98;57.13;100494.72;1660274;85;21311;-67
2021/07/16 04:48:18;;;;;;;12.43;3.80;;;;;;;25.13;56.96;100494.61;1658184;85;21193;-68
2021/07/16 04:50:51;;;;;;;13.28;4.05;;;;;;;25.26;57.20;100494.98;1655962;85;21304;-68
2021/07/16 04:53:24;;;;;;;10.28;3.90;;;;;;;25.37;57.16;100491.52;1648532;85;21177;-69
2021/07/16 04:55:58;;;;;;;16.20;4.20;;;;;;;25.48;56.74;100500.19;1663293;85;21203;-69
2021/07/16 04:58:31;;;;;;;23.70;4.33;;;;;;;25.64;56.56;100509.45;1674868;84;21216;-70
2021/07/16 05:01:04;;;;;;;15.80;3.75;;;;;;;25.80;56.39;100504.77;1661674;82;22435;-68
2021/07/16 05:03:37;;;;;;;;;;;;;;;25.97;55.86;100509.25;1690012;83;21438;-69
2021/07/16 05:06:16;;;;;;;21.33;5.08;;;;;;;26.16;55.30;100502.48;1679489;82;20249;-71
2021/07/16 05:08:46;;;;;;;17.55;5.25;;;;;;;26.30;54.98;100503.89;1667584;83;21326;-69
2021/07/16 05:11:19;;;;;;;21.73;5.83;;;;;;;26.44;54.43;100495.93;1661648;83;21381;-71
2021/07/16 05:13:53;;;;;;;21.20;6.65;;;;;;;26.63;53.77;100502.27;1667447;83;21318;-70
2021/07/16 05:16:29;;;;;;;21.93;7.95;;;;;;;26.63;53.77;100502.27;1640471;84;21261;-70
2021/07/16 05:19:14;;;;;;;20.62;7.78;;;;;;;26.71;53.74;100501.92;1622625;85;21278;-70
2021/07/16 05:21:47;;;;;;;20.85;6.92;;;;;;;26.81;53.63;100504.56;1644558;84;21893;-71
2021/07/16 05:24:21;;;;;;;19.62;6.58;;;;;;;26.90;53.44;100507.17;1678566;83;21351;-73
2021/07/16 05:26:53;;;;;;;11.80;5.83;;;;;;;27.02;53.11;100507.45;1671867;83;21270;-72
2021/07/16 05:29:26;;;;;;;19.80;5.37;;;;;;;27.22;52.72;100505.70;1633342;84;21240;-74
2021/07/16 05:32:00;;;;;;;19.42;5.40;;;;;;;27.71;52.09;100505.05;1647035;85;21204;-73
2021/07/16 05:34:34;;;;;;;19.50;5.97;;;;;;;28.73;50.43;100509.73;1623267;86;21333;-69
2021/07/16 05:37:09;;;;;;;18.85;6.85;;;;;;;30.10;47.65;100511.56;1661919;83;21204;-68
2021/07/16 05:39:46;;;;;;;16.52;6.08;;;;;;;31.56;44.27;100504.30;1637763;85;21219;-71
2021/07/16 05:42:20;;;;;;;17.45;4.70;;;;;;;33.02;40.75;100505.59;1620146;86;21411;-70
2021/07/16 05:44:53;;;;;;;13.15;4.37;;;;;;;34.34;37.86;100495.50;1630177;86;21882;-68
2021/07/16 05:47:26;;;;;;;;;;;;;;;35.59;35.46;100496.45;1621694;86;21943;-69
2021/07/16 05:50:00;;;;;;;11.78;3.52;;;;;;;36.68;32.33;100491.34;1620429;86;20255;-68
2021/07/16 05:52:33;;;;;;;14.23;4.17;;;;;;;37.01;31.40;100486.60;1670517;84;21333;-70
2021/07/16 05:55:07;;;;;;;8.98;3.95;;;;;;;37.07;31.00;100486.73;1629545;86;21358;-68
2021/07/16 05:57:42;;;;;;;11.85;4.05;;;;;;;37.43;30.39;100498.52;1685023;83;21324;-70
2021/07/16 06:00:15;;;;;;;10.90;3.35;;;;;;;37.99;29.55;100487.09;1681988;83;21306;-70
2021/07/16 06:02:50;;;;;;;9.10;3.60;;;;;;;38.06;28.83;100492.11;1667645;83;21228;-70
2021/07/16 06:05:23;;;;;;;7.40;3.12;;;;;;;37.76;29.32;100492.30;1675765;84;21362;-70
2021/07/16 06:07:57;;;;;;;13.83;3.87;;;;;;;37.44;29.67;100487.05;1656755;84;21340;-70
2021/07/16 06:10:31;;;;;;;12.63;2.95;;;;;;;37.22;29.68;100480.13;1684931;83;21284;-69
2021/07/16 06:13:06;;;;;;;12.28;2.65;;;;;;;37.22;29.63;100474.67;1671316;83;21220;-69
2021/07/16 06:15:39;;;;;;;16.60;3.52;;;;;;;37.36;29.56;100469.43;1676260;82;21327;-67
2021/07/16 06:18:12;;;;;;;8.25;3.10;;;;;;;37.53;29.72;100468.80;1629184;85;22162;-70
2021/07/16 06:20:46;;;;;;;14.93;3.37;;;;;;;37.44;29.73;100470.10;1680289;83;21177;-68
2021/07/16 06:23:20;;;;;;;16.02;3.35;;;;;;;37.28;29.86;100473.46;1669470;83;21414;-68
2021/07/16 06:25:53;;;;;;;13.58;3.10;;;;;;;37.23;30.12;100477.67;1667163;83;21320;-67
2021/07/16 06:28:28;;;;;;;7.95;3.20;;;;;;;37.08;30.21;100470.62;1664381;83;22096;-72
2021/07/16 06:31:01;;;;;;;8.85;3.27;;;;;;;36.84;30.76;100470.01;1679853;82;22272;-69
2021/07/16 06:33:35;;;;;;;8.35;3.00;;;;;;;36.52;30.97;100477.73;1623226;86;21261;-67
2021/07/16 06:36:08;;;;;;;18.90;7.45;;;;;;;36.19;31.45;100482.96;1663705;83;21656;-68
2021/07/16 06:38:42;;;;;;;11.83;4.17;;;;;;;35.92;32.27;100499.22;1666850;82;21161;-70
2021/07/16 06:41:15;;;;;;;11.33;3.40;;;;;;;35.67;34.67;100502.61;1682685;83;21218;-68
2021/07/16 06:43:48;;;;;;;10.80;3.55;;;;;;;35.40;35.89;100510.59;1664803;83;21312;-66
2021/07/16 06:46:21;;;;;;;11.75;3.95;;;;;;;35.12;36.08;100510.98;1663446;83;21836;-72
2021/07/16 06:48:54;;;;;;;11.97;3.55;;;;;;;35.01;36.21;100510.01;1667438;82;21374;-71
2021/07/16 06:51:27;;;;;;;11.33;3.50;;;;;;;34.98;36.11;100503.23;1672796;82;21284;-72
2021/07/16 06:54:02;;;;;;;8.58;3.47;;;;;;;35.08;35.87;100491.45;1682932;83;21331;-67
2021/07/16 06:56:38;;;;;;;12.00;3.92;;;;;;;35.10;35.09;100486.52;1667743;82;21921;-67
2021/07/16 06:59:12;;;;;;;13.62;4.30;;;;;;;35.05;34.75;100481.14;1666965;83;21323;-68
2021/07/16 07:01:45;;;;;;;9.90;5.28;;;;;;;34.92;34.69;100477.17;1632534;85;21901;-67
2021/07/16 07:04:19;;;;;;;12.28;5.00;;;;;;;34.76;34.71;100471.67;1619487;86;21334;-67
2021/07/16 07:06:52;;;;;;;24.60;14.93;;;;;;;34.62;35.22;100468.58;1622801;86;21405;-68
2021/07/16 07:09:26;;;;;;;14.85;6.35;;;;;;;34.47;35.62;100462.18;1623526;86;21350;-67
2021/07/16 07:11:58;;;;;;;;;;;;;;;34.24;36.30;100462.16;1665891;83;21231;-67
2021/07/16 07:14:31;;;;;;;11.12;4.97;;;;;;;33.86;37.58;100446.19;1666520;83;20290;-67
2021/07/16 07:17:05;;;;;;;14.95;5.10;;;;;;;33.39;38.94;100440.55;1635986;84;21280;-67
2021/07/16 07:19:38;;;;;;;14.18;5.17;;;;;;;32.99;39.47;100434.77;1639298;84;22260;-70
2021/07/16 07:22:11;;;;;;;;;;;;;;;32.62;40.60;100437.11;1626880;86;21331;-69
2021/07/16 07:24:43;;;;;;;10.30;4.22;;;;;;;32.23;40.30;100425.53;1625172;86;20643;-71
2021/07/16 07:27:16;;;;;;;11.90;4.05;;;;;;;31.87;41.54;100429.33;1682778;82;21340;-70
2021/07/16 07:29:49;;;;;;;23.73;5.42;;;;;;;31.59;42.71;100425.28;1663155;83;21335;-72
2021/07/16 07:32:23;;;;;;;8.95;4.20;;;;;;;31.37;43.42;100427.91;1678930;83;21817;-70
2021/07/16 07:34:56;;;;;;;11.75;4.62;;;;;;;31.18;44.53;100420.31;1606826;86;21309;-70
2021/07/16 07:37:29;;;;;;;13.78;6.20;;;;;;;31.19;44.98;100414.38;1673708;83;21304;-68
2021/07/16 07:40:03;;;;;;;14.18;5.25;;;;;;;31.26;45.17;100415.72;1672952;83;21323;-73
2021/07/16 07:42:36;;;;;;;16.15;5.03;;;;;;;31.25;44.57;100418.17;1675402;83;21306;-68
2021/07/16 07:45:09;;;;;;;22.37;5.03;;;;;;;31.20;44.42;100420.86;1683423;83;21339;-68
2021/07/16 07:47:42;;;;;;;16.07;4.75;;;;;;;31.23;44.31;100414.92;1668385;83;22468;-69
2021/07/16 07:50:17;;;;;;;17.65;5.47;;;;;;;31.30;43.81;100424.94;1672897;83;21188;-67
2021/07/16 07:52:51;;;;;;;12.80;4.08;;;;;;;31.33;43.91;100431.71;1637776;84;21306;-69
2021/07/16 07:55:25;;;;;;;17.00;5.15;;;;;;;31.35;44.41;100428.20;1624348;86;21361;-69
2021/07/16 07:57:58;;;;;;;11.70;4.72;;;;;;;31.31;43.86;100423.84;1668523;83;22827;-67
2021/07/16 08:00:31;;;;;;;13.75;4.85;;;;;;;31.27;43.31;100420.59;1680811;83;21810;-67
2021/07/16 08:03:04;;;;;;;15.28;4.22;;;;;;;31.33;43.86;100413.30;1655588;83;21303;-68
2021/07/16 08:05:37;;;;;;;11.88;4.30;;;;;;;31.70;43.45;100413.90;1654618;84;21858;-66
2021/07/16 08:08:10;;;;;;;13.60;4.47;;;;;;;32.09;42.15;100406.87;1674293;83;21338;-70
2021/07/16 08:10:43;;;;;;;22.70;4.22;;;;;;;32.50;41.23;100409.78;1669723;83;21339;-67
2021/07/16 08:13:16;;;;;;;13.90;4.67;;;;;;;32.90;40.49;100405.25;1677663;83;21344;-67
2021/07/16 08:15:50;;;;;;;12.03;3.85;;;;;;;33.55;40.39;100404.90;1658036;83;21334;-72
2021/07/16 08:18:23;;;;;;;9.53;3.37;;;;;;;34.43;37.89;100410.86;1624440;86;22955;-69
2021/07/16 08:20:59;;;;;;;9.48;3.35;;;;;;;35.29;36.54;100395.34;1683522;82;21315;-69
2021/07/16 08:23:32;;;;;;;9.73;3.30;;;;;;;36.06;35.41;100401.99;1665732;82;21291;-70
2021/07/16 08:26:05;;;;;;;10.48;3.27;;;;;;;36.60;33.75;100402.58;1671071;83;21201;-73
2021/07/16 08:28:38;;;;;;;13.75;3.42;;;;;;;36.97;32.63;100405.09;1662569;83;21339;-71
2021/07/16 08:31:11;;;;;;;15.25;3.35;;;;;;;37.16;32.25;100396.75;1682117;83;21336;-73
2021/07/16 08:33:44;;;;;;;9.33;3.72;;;;;;;37.35;32.08;100400.11;1682560;83;21323;-72
2021/07/16 08:36:18;;;;;;;16.35;4.85;;;;;;;37.49;31.40;100405.80;1681430;83;21290;-72
2021/07/16 08:38:51;;;;;;;11.73;3.92;;;;;;;37.39;31.47;100400.58;1670618;82;21312;-75
2021/07/16 08:41:26;;;;;;;9.98;3.62;;;;;;;37.33;30.93;100403.72;1661039;82;21232;-73
2021/07/16 08:43:59;;;;;;;10.03;3.67;;;;;;;37.48;30.36;100408.82;1665160;82;21323;-69
2021/07/16 08:46:33;;;;;;;10.98;4.05;;;;;;;37.78;30.10;100400.66;1682244;82;21322;-68
2021/07/16 08:49:06;;;;;;;14.68;3.87;;;;;;;38.08;29.81;100399.09;1675261;83;21335;-73
2021/07/16 08:51:40;;;;;;;12.58;3.72;;;;;;;38.26;29.29;100405.45;1683355;83;21308;-73
2021/07/16 08:54:16;;;;;;;19.20;4.55;;;;;;;38.44;28.84;100394.84;1657063;84;21292;-75
2021/07/16 08:56:49;;;;;;;11.05;4.50;;;;;;;38.64;29.35;100402.47;1680425;83;21803;-75
2021/07/16 08:59:22;;;;;;;14.33;4.33;;;;;;;38.53;29.16;100395.66;1662919;83;21898;-72
2021/07/16 09:01:55;;;;;;;13.28;3.65;;;;;;;38.32;28.50;100389.98;1660044;83;21364;-70
2021/07/16 09:04:30;;;;;;;14.47;3.55;;;;;;;38.17;28.28;100393.09;1679611;83;21205;-71
2021/07/16 09:07:03;;;;;;;6.72;2.60;;;;;;;38.24;27.90;100384.42;1655015;84;21312;-78
2021/07/16 09:09:37;;;;;;;7.87;2.98;;;;;;;38.41;27.63;100383.16;1686656;83;21197;-76
2021/07/16 09:12:15;;;;;;;13.60;3.02;;;;;;;38.57;27.56;100382.98;1669241;83;21216;-77
2021/07/16 09:14:48;;;;;;;12.70;4.40;;;;;;;38.69;26.34;100382.35;1672244;83;21197;-75
2021/07/16 09:17:22;;;;;;;6.62;2.85;;;;;;;38.80;25.70;100374.09;1683895;83;21745;-73
2021/07/16 09:19:57;;;;;;;7.72;3.10;;;;;;;38.86;25.27;100376.94;1636517;85;21296;-75
2021/07/16 09:22:34;;;;;;;7.58;2.60;;;;;;;38.88;25.45;100369.98;1687370;83;21252;-73
2021/07/16 09:25:06;;;;;;;13.78;2.80;;;;;;;39.03;25.13;100371.45;1680389;83;21262;-75
2021/07/16 09:27:42;;;;;;;8.18;3.05;;;;;;;39.25;25.09;100378.72;1691497;83;21324;-75
2021/07/16 09:30:27;;;;;;;9.10;2.42;;;;;;;39.48;25.27;100373.32;1668529;84;21351;-76
2021/07/16 09:33:05;;;;;;;7.95;2.62;;;;;;;39.64;24.14;100366.22;1666613;83;21292;-74
2021/07/16 09:35:41;;;;;;;7.55;2.70;;;;;;;39.44;23.86;100375.08;1661219;83;21398;-72
2021/07/16 09:38:17;;;;;;;10.78;2.37;;;;;;;39.33;24.16;100365.59;1663324;83;21399;-71
2021/07/16 09:40:55;;;;;;;12.23;2.70;;;;;;;39.28;24.07;100368.50;1664527;83;21312;-70
2021/07/16 09:43:28;;;;;;;6.70;2.20;;;;;;;39.23;24.97;100375.50;1679278;83;21224;-74
2021/07/16 09:46:06;;;;;;;7.87;2.50;;;;;;;38.96;24.86;100385.63;1688461;82;21886;-75
2021/07/16 09:48:50;;;;;;;6.92;2.52;;;;;;;38.44;25.35;100377.06;1655018;83;21273;-71
2021/07/16 09:51:25;;;;;;;17.98;2.95;;;;;;;37.87;25.73;100372.62;1688744;83;21354;-69
2021/07/16 09:54:07;;;;;;;10.15;2.58;;;;;;;37.45;26.11;100372.02;1680119;84;21304;-73
2021/07/16 09:56:37;;;;;;;8.85;2.85;;;;;;;37.11;26.76;100364.92;1668290;84;21276;-69
2021/07/16 09:59:17;;;;;;;10.95;3.10;;;;;;;36.92;27.38;100369.73;1668850;83;21335;-71
2021/07/16 10:01:50;;;;;;;6.12;3.10;;;;;;;36.68;27.93;100367.23;1662728;84;21323;-72
2021/07/16 10:04:33;;;;;;;6.30;3.00;;;;;;;36.53;28.71;100367.55;1659245;84;21201;-70
2021/07/16 10:07:04;;;;;;;8.05;2.72;;;;;;;36.37;28.17;100357.49;1669502;84;21260;-71
2021/07/16 10:09:37;;;;;;;13.28;3.02;;;;;;;36.28;28.45;100359.87;1674985;84;21393;-72
2021/07/16 10:12:09;;;;;;;;;;;;;;;36.27;29.73;100358.23;1683535;83;21327;-74
2021/07/16 10:14:42;;;;;;;10.32;3.65;;;;;;;36.07;31.35;100354.54;1684528;83;20275;-71
2021/07/16 10:17:15;;;;;;;12.85;3.55;;;;;;;35.74;32.29;100350.49;1658213;83;21370;-74
2021/07/16 10:19:49;;;;;;;15.18;3.40;;;;;;;35.58;33.11;100341.53;1680046;83;21303;-73
2021/07/16 10:22:23;;;;;;;4.33;2.70;;;;;;;35.54;33.73;100335.86;1677442;84;21237;-71
2021/07/16 10:24:55;;;;;;;;;;;;;;;35.54;34.20;100333.72;1672792;84;21352;-69
2021/07/16 10:27:27;;;;;;;7.08;2.67;;;;;;;35.47;33.79;100325.09;1671869;84;21128;-70
2021/07/16 10:30:13;;;;;;;5.90;2.47;;;;;;;35.32;33.63;100325.34;1675913;83;21403;-69
2021/07/16 10:32:47;;;;;;;4.58;2.47;;;;;;;35.05;34.14;100308.35;1685250;83;21898;-68
2021/07/16 10:35:26;;;;;;;8.28;2.72;;;;;;;34.90;34.57;100308.00;1681453;83;21319;-69
2021/07/16 10:38:06;;;;;;;10.23;2.75;;;;;;;34.82;34.74;100301.07;1683831;84;21328;-71
2021/07/16 10:40:44;;;;;;;3.95;2.50;;;;;;;34.74;34.57;100297.64;1661269;83;21367;-72
2021/07/16 10:43:30;;;;;;;8.63;3.15;;;;;;;34.67;34.08;100295.84;1669683;82;21275;-68
2021/07/16 10:46:07;;;;;;;8.15;2.80;;;;;;;34.48;34.29;100291.19;1678403;82;21300;-69
2021/07/16 10:48:43;;;;;;;5.72;2.85;;;;;;;34.28;34.42;100313.18;1673073;83;21228;-71
2021/07/16 10:51:26;;;;;;;6.17;2.80;;;;;;;34.01;34.38;100311.56;1686888;81;21737;-71
2021/07/16 10:54:00;;;;;;;5.42;3.02;;;;;;;33.66;34.77;100296.47;1693325;83;21352;-71
2021/07/16 10:56:48;;;;;;;7.92;3.30;;;;;;;33.38;35.26;100297.25;1670263;83;21404;-69
2021/07/16 10:59:44;;;;;;;6.95;3.15;;;;;;;33.17;35.85;100299.30;1687569;83;21360;-68
2021/07/16 11:02:50;;;;;;;9.93;3.25;;;;;;;32.96;36.47;100292.95;1691786;83;21301;-69
2021/07/16 11:05:44;;;;;;;33.33;4.42;;;;;;;32.72;36.69;100297.45;1659786;84;21857;-67
2021/07/16 11:08:40;;;;;;;12.60;3.83;;;;;;;32.37;38.81;100304.64;1666109;83;21304;-71
2021/07/16 11:11:22;;;;;;;9.60;4.00;;;;;;;32.12;40.20;100313.42;1657655;84;21180;-70
2021/07/16 11:13:56;;;;;;;6.50;3.50;;;;;;;31.79;41.27;100303.98;1670544;83;21288;-71
2021/07/16 11:16:39;;;;;;;11.40;3.98;;;;;;;31.50;41.73;100298.37;1671869;84;21387;-75
2021/07/16 11:19:20;;;;;;;9.68;3.83;;;;;;;31.21;43.61;100298.08;1683495;83;21370;-72
2021/07/16 11:21:58;;;;;;;6.20;3.80;;;;;;;30.93;44.58;100291.81;1678563;83;21388;-72
2021/07/16 11:24:40;;;;;;;7.10;3.47;;;;;;;30.70;45.78;100288.77;1671356;83;21508;-71
2021/07/16 11:27:20;;;;;;;9.25;4.00;;;;;;;30.47;47.14;100293.59;1675974;83;21736;-74
2021/07/16 11:29:53;;;;;;;7.65;4.00;;;;;;;30.26;47.64;100293.19;1665679;84;21201;-70
2021/07/16 11:32:30;;;;;;;;;;;;;;;29.98;47.97;100293.07;1683974;83;21293;-71
2021/07/16 11:35:06;;;;;;;7.50;4.45;;;;;;;29.76;49.10;100300.98;1677268;84;20269;-71
2021/07/16 11:37:44;;;;;;;6.87;4.70;;;;;;;29.53;50.17;100300.03;1670356;83;21303;-72
2021/07/16 11:40:28;;;;;;;6.35;4.97;;;;;;;29.34;50.82;100299.62;1682775;83;21165;-71
2021/07/16 11:43:02;;;;;;;10.72;4.87;;;;;;;29.16;51.94;100299.42;1661048;84;21277;-75
2021/07/16 11:45:37;;;;;;;9.83;5.28;;;;;;;28.98;52.74;100305.73;1674383;83;21189;-72
2021/07/16 11:48:17;;;;;;;11.63;5.37;;;;;;;28.80;53.42;100303.41;1690289;83;21286;-70
2021/07/16 11:50:50;;;;;;;11.93;5.80;;;;;;;28.61;54.43;100311.02;1668682;84;21307;-71
2021/07/16 11:53:28;;;;;;;7.97;6.08;;;;;;;28.41;54.61;100311.56;1677227;84;21369;-75
2021/07/16 11:56:01;;;;;;;9.75;6.10;;;;;;;28.26;55.29;100308.67;1686268;83;21260;-71